Time;durP1;ratioP1;P1;durP2;ratioP2;P2;SDS_P1;SDS_P2;PMS_P1;PMS_P2;Temp;Humidity;BMP_temperature;BMP_pressure;BME280_temperature;BME280_humidity;BME280_pressure;Samples;Min_cycle;Max_cycle;Signal;HPM_P1;HPM_P2
2020/12/20 00:00:52;;;;;;;9.07;6.43;;;6.40;51.40;;;;;;6249606;22;38672;-78
2020/12/20 00:03:19;;;;;;;7.13;6.37;;;6.40;51.50;;;;;;6221347;22;37299;-79
2020/12/20 00:05:46;;;;;;;8.60;6.80;;;6.40;51.70;;;;;;6249139;22;36864;-79
2020/12/20 00:08:13;;;;;;;8.23;6.60;;;6.50;51.70;;;;;;6249035;22;40890;-79
2020/12/20 00:10:42;;;;;;;8.10;6.50;;;6.50;51.90;;;;;;6248424;22;40216;-79
2020/12/20 00:13:09;;;;;;;10.00;7.30;;;6.50;51.90;;;;;;6223052;22;39142;-79
2020/12/20 00:15:37;;;;;;;12.23;8.40;;;6.50;52.10;;;;;;6243733;22;36800;-78
2020/12/20 00:18:04;;;;;;;9.60;7.70;;;6.50;52.30;;;;;;6252595;22;39826;-78
2020/12/20 00:20:31;;;;;;;10.17;7.00;;;6.40;52.60;;;;;;6252196;22;38951;-78
2020/12/20 00:22:58;;;;;;;8.67;6.73;;;6.50;52.50;;;;;;6279723;22;37474;-77
2020/12/20 00:25:25;;;;;;;10.90;7.47;;;6.50;52.40;;;;;;6252346;22;36507;-78
2020/12/20 00:27:52;;;;;;;8.37;6.70;;;6.50;52.60;;;;;;6251324;22;38365;-78
2020/12/20 00:30:19;;;;;;;10.60;7.27;;;6.40;52.50;;;;;;6279993;22;38634;-77
2020/12/20 00:32:47;;;;;;;8.10;6.60;;;6.40;52.70;;;;;;6280056;22;38780;-78
2020/12/20 00:35:14;;;;;;;10.97;7.97;;;6.40;52.60;;;;;;6253496;22;35853;-78
2020/12/20 00:37:41;;;;;;;9.93;7.70;;;6.50;52.60;;;;;;6281922;22;39938;-78
2020/12/20 00:40:08;;;;;;;9.93;7.40;;;6.40;52.20;;;;;;6280325;22;39417;-78
2020/12/20 00:42:37;;;;;;;7.80;6.60;;;6.40;52.60;;;;;;6252439;22;37478;-78
2020/12/20 00:45:06;;;;;;;8.23;6.10;;;6.50;52.40;;;;;;6252106;22;35798;-78
2020/12/20 00:47:33;;;;;;;8.23;6.43;;;6.40;52.50;;;;;;6252931;22;38735;-78
2020/12/20 00:50:01;;;;;;;11.70;6.80;;;6.40;52.50;;;;;;6251384;22;38152;-78
2020/12/20 00:52:28;;;;;;;12.13;7.40;;;6.30;52.70;;;;;;6252943;22;36462;-78
2020/12/20 00:54:59;;;;;;;9.30;7.30;;;6.30;52.60;;;;;;6252432;22;35816;-78
2020/12/20 00:57:26;;;;;;;9.63;6.80;;;6.40;52.70;;;;;;6227786;22;39482;-78
2020/12/20 00:59:54;;;;;;;7.23;6.07;;;6.40;52.50;;;;;;6253071;22;38255;-77
2020/12/20 01:02:23;;;;;;;11.30;6.83;;;6.40;52.60;;;;;;6279259;22;38258;-77
2020/12/20 01:04:51;;;;;;;7.90;6.00;;;6.40;52.60;;;;;;6251690;22;35977;-77
2020/12/20 01:07:19;;;;;;;9.30;7.10;;;6.40;53.20;;;;;;6251584;22;38678;-77
2020/12/20 01:09:51;;;;;;;7.10;6.27;;;6.40;52.50;;;;;;6252260;22;38147;-77
2020/12/20 01:12:21;;;;;;;7.23;6.13;;;6.30;52.60;;;;;;6252563;22;37729;-77
2020/12/20 01:15:11;;;;;;;6.80;6.10;;;6.30;52.60;;;;;;6263591;22;36756;-77
2020/12/20 01:17:42;;;;;;;7.13;5.60;;;6.40;52.20;;;;;;6223325;22;38254;-77
2020/12/20 01:20:13;;;;;;;6.73;5.80;;;6.30;52.10;;;;;;6251323;22;39162;-77
2020/12/20 01:22:40;;;;;;;10.20;6.40;;;6.30;52.10;;;;;;6224222;22;37316;-77
2020/12/20 01:25:11;;;;;;;7.60;6.00;;;6.40;52.30;;;;;;6223990;22;36815;-77
2020/12/20 01:27:38;;;;;;;7.47;5.87;;;6.40;52.10;;;;;;6224025;22;39776;-77
2020/12/20 01:30:06;;;;;;;6.73;5.70;;;6.40;51.80;;;;;;6224075;22;38575;-77
2020/12/20 01:32:34;;;;;;;7.43;5.83;;;6.40;51.80;;;;;;6224433;22;37572;-77
2020/12/20 01:35:07;;;;;;;6.90;5.80;;;6.40;51.70;;;;;;6224330;22;37018;-77
2020/12/20 01:37:35;;;;;;;6.07;5.47;;;6.40;51.70;;;;;;6228361;22;39429;-77
2020/12/20 01:40:05;;;;;;;6.50;5.73;;;6.40;51.60;;;;;;6250911;22;39916;-77
2020/12/20 01:42:33;;;;;;;6.00;5.40;;;6.50;51.70;;;;;;6223702;22;36524;-77
2020/12/20 01:45:00;;;;;;;5.97;5.47;;;6.40;51.80;;;;;;6223529;22;35434;-77
2020/12/20 01:47:32;;;;;;;6.20;5.57;;;6.50;51.80;;;;;;6223373;22;38452;-77
2020/12/20 01:50:05;;;;;;;7.93;6.00;;;6.50;51.90;;;;;;6224450;22;38241;-77
2020/12/20 01:52:35;;;;;;;7.53;6.23;;;6.40;52.00;;;;;;6223967;22;36309;-77
2020/12/20 01:55:03;;;;;;;9.03;6.03;;;6.40;52.20;;;;;;6226130;22;36071;-77
2020/12/20 01:57:43;;;;;;;8.23;6.53;;;6.40;52.60;;;;;;6232034;22;38208;-76
2020/12/20 02:00:23;;;;;;;7.30;6.47;;;6.40;53.00;;;;;;6239420;22;38347;-78
2020/12/20 02:03:10;;;;;;;7.93;6.43;;;6.40;53.10;;;;;;6206235;22;37871;-77
2020/12/20 02:05:40;;;;;;;8.07;6.67;;;6.40;53.30;;;;;;6225672;22;37054;-78
2020/12/20 02:08:08;;;;;;;7.20;6.50;;;6.40;53.30;;;;;;6225248;22;39312;-77
2020/12/20 02:10:36;;;;;;;9.80;6.40;;;6.40;53.40;;;;;;6224508;22;38754;-78
2020/12/20 02:13:04;;;;;;;8.20;6.73;;;6.40;53.40;;;;;;6226150;22;36739;-77
2020/12/20 02:15:36;;;;;;;7.63;6.27;;;6.40;53.40;;;;;;6247247;22;37543;-77
2020/12/20 02:18:04;;;;;;;11.17;6.53;;;6.40;53.40;;;;;;6256685;22;38839;-76
2020/12/20 02:20:35;;;;;;;9.10;6.50;;;6.30;54.10;;;;;;6264042;22;37994;-78
2020/12/20 02:23:07;;;;;;;7.70;6.80;;;6.30;53.60;;;;;;6294046;22;37704;-77
2020/12/20 02:25:41;;;;;;;10.03;7.60;;;6.30;53.60;;;;;;6261918;22;36467;-78
2020/12/20 02:28:21;;;;;;;8.17;6.77;;;6.30;53.60;;;;;;6256959;22;38889;-78
2020/12/20 02:30:49;;;;;;;13.63;8.23;;;6.30;53.60;;;;;;6262519;22;38649;-78
2020/12/20 02:33:25;;;;;;;8.27;6.93;;;6.30;53.70;;;;;;6296718;22;38311;-78
2020/12/20 02:35:52;;;;;;;8.73;7.17;;;6.30;54.40;;;;;;6263832;22;36879;-77
2020/12/20 02:38:20;;;;;;;7.97;6.67;;;6.30;53.70;;;;;;6254596;22;39433;-77
2020/12/20 02:41:08;;;;;;;7.10;6.23;;;6.30;53.70;;;;;;6282077;22;39044;-77
2020/12/20 02:43:35;;;;;;;11.20;6.57;;;6.30;54.30;;;;;;6228728;22;37026;-78
2020/12/20 02:46:03;;;;;;;9.67;6.50;;;6.30;53.60;;;;;;6254086;22;35934;-77
2020/12/20 02:48:30;;;;;;;7.37;6.53;;;6.20;53.50;;;;;;6254562;22;38497;-77
2020/12/20 02:50:58;;;;;;;9.57;6.90;;;6.30;53.70;;;;;;6254067;22;37898;-77
2020/12/20 02:53:26;;;;;;;7.50;6.17;;;6.30;53.40;;;;;;6254022;22;36580;-78
2020/12/20 02:55:53;;;;;;;8.40;6.67;;;6.30;53.30;;;;;;6254125;22;36069;-78
2020/12/20 02:58:20;;;;;;;6.47;5.77;;;6.30;52.90;;;;;;6254208;22;39779;-78
2020/12/20 03:00:58;;;;;;;6.93;6.20;;;6.30;52.90;;;;;;6282039;22;39239;-77
2020/12/20 03:03:25;;;;;;;9.30;6.00;;;6.30;52.90;;;;;;6254309;22;36375;-78
2020/12/20 03:05:54;;;;;;;6.13;5.50;;;6.30;52.80;;;;;;6253962;22;37104;-78
2020/12/20 03:08:23;;;;;;;8.73;5.60;;;6.30;52.80;;;;;;6253812;22;39685;-78
2020/12/20 03:10:51;;;;;;;8.30;6.10;;;6.30;53.00;;;;;;6254118;22;37829;-78
2020/12/20 03:13:18;;;;;;;7.20;6.00;;;6.30;53.00;;;;;;6280109;22;37670;-78
2020/12/20 03:15:49;;;;;;;8.17;6.43;;;6.30;53.20;;;;;;6254287;22;36067;-79
2020/12/20 03:18:19;;;;;;;8.30;6.57;;;6.30;54.10;;;;;;6253164;22;40787;-79
2020/12/20 03:20:46;;;;;;;9.73;6.90;;;6.20;53.60;;;;;;6253698;22;37810;-78
2020/12/20 03:23:13;;;;;;;9.00;6.70;;;6.20;54.00;;;;;;6281967;22;37525;-78
2020/12/20 03:26:06;;;;;;;8.37;6.30;;;6.20;54.00;;;;;;6278888;22;37568;-78
2020/12/20 03:29:03;;;;;;;8.77;6.90;;;6.20;54.10;;;;;;6280790;22;40394;-78
2020/12/20 03:31:51;;;;;;;9.20;6.70;;;6.10;54.00;;;;;;6248618;22;39858;-77
2020/12/20 03:34:36;;;;;;;8.00;6.70;;;6.10;54.20;;;;;;6260096;22;38978;-77
2020/12/20 03:37:15;;;;;;;9.50;7.23;;;6.10;54.20;;;;;;6253077;22;36057;-77
2020/12/20 03:39:52;;;;;;;10.10;7.33;;;6.10;54.30;;;;;;6253587;22;38547;-77
2020/12/20 03:42:21;;;;;;;7.13;6.20;;;6.10;54.40;;;;;;6253833;22;38219;-78
2020/12/20 03:44:48;;;;;;;8.87;6.50;;;6.10;54.50;;;;;;6253556;22;36398;-78
2020/12/20 03:47:15;;;;;;;6.80;6.10;;;6.10;54.40;;;;;;6253777;22;37369;-77
2020/12/20 03:49:44;;;;;;;7.40;5.90;;;6.20;54.50;;;;;;6254784;22;38498;-76
2020/12/20 03:52:11;;;;;;;8.40;7.07;;;6.10;54.40;;;;;;6253789;22;38860;-78
2020/12/20 03:54:55;;;;;;;7.60;6.10;;;6.20;54.50;;;;;;6253942;22;36583;-77
2020/12/20 03:57:24;;;;;;;7.27;6.53;;;6.20;54.30;;;;;;6253357;22;36049;-77
2020/12/20 03:59:51;;;;;;;8.30;6.30;;;6.20;54.10;;;;;;6253731;22;38444;-77
2020/12/20 04:02:19;;;;;;;7.70;5.80;;;6.20;54.00;;;;;;6254156;22;38943;-77
2020/12/20 04:04:46;;;;;;;8.07;6.50;;;6.20;53.90;;;;;;6282443;22;38958;-76
2020/12/20 04:07:14;;;;;;;8.17;5.57;;;6.20;54.00;;;;;;6260033;22;37161;-77
2020/12/20 04:09:45;;;;;;;10.47;6.17;;;6.20;54.10;;;;;;6267441;22;38527;-79
2020/12/20 04:12:22;;;;;;;7.97;6.50;;;6.20;54.00;;;;;;6258382;22;38208;-78
2020/12/20 04:14:51;;;;;;;7.93;5.80;;;6.30;54.10;;;;;;6254660;22;36214;-78
2020/12/20 04:17:19;;;;;;;7.33;5.67;;;6.30;54.20;;;;;;6254827;22;36993;-77
2020/12/20 04:19:46;;;;;;;8.30;6.50;;;6.30;54.10;;;;;;6253517;22;39184;-77
2020/12/20 04:22:28;;;;;;;6.83;6.13;;;6.30;54.00;;;;;;6253919;22;37697;-76
2020/12/20 04:25:16;;;;;;;8.20;6.30;;;6.30;54.00;;;;;;6253571;22;37367;-77
2020/12/20 04:28:03;;;;;;;8.17;6.63;;;6.40;54.10;;;;;;6264087;22;38174;-76
2020/12/20 04:30:31;;;;;;;8.60;6.43;;;6.40;54.00;;;;;;6253212;22;39724;-77
2020/12/20 04:33:04;;;;;;;8.83;6.33;;;6.40;54.10;;;;;;6254755;22;40519;-76
2020/12/20 04:35:35;;;;;;;8.23;6.60;;;6.40;54.10;;;;;;6253273;22;36350;-76
2020/12/20 04:38:03;;;;;;;7.40;6.13;;;6.40;54.10;;;;;;6253397;22;35438;-77
2020/12/20 04:40:38;;;;;;;6.43;5.67;;;6.40;54.00;;;;;;6254185;22;38735;-77
2020/12/20 04:43:06;;;;;;;6.57;5.40;;;6.40;54.10;;;;;;6252880;22;38857;-76
2020/12/20 04:45:38;;;;;;;7.20;6.20;;;6.40;54.20;;;;;;6256497;22;37478;-76
2020/12/20 04:48:12;;;;;;;7.93;6.50;;;6.40;54.10;;;;;;6253854;22;36257;-76
2020/12/20 04:50:51;;;;;;;8.17;6.70;;;6.40;54.20;;;;;;6252549;22;39650;-77
2020/12/20 04:53:18;;;;;;;7.77;6.40;;;6.30;54.20;;;;;;6255400;22;37771;-77
2020/12/20 04:56:03;;;;;;;9.00;6.67;;;6.30;54.30;;;;;;6254629;22;36678;-77
2020/12/20 04:58:49;;;;;;;8.50;7.50;;;6.30;54.40;;;;;;6253283;22;38594;-77
2020/12/20 05:01:18;;;;;;;9.60;7.40;;;6.30;54.60;;;;;;6254547;22;40069;-77
2020/12/20 05:03:46;;;;;;;10.47;8.33;;;6.20;54.60;;;;;;6253252;22;38273;-77
2020/12/20 05:06:15;;;;;;;9.33;8.10;;;6.20;54.70;;;;;;6252897;22;37448;-78
2020/12/20 05:08:45;;;;;;;8.90;7.40;;;6.20;54.70;;;;;;6253328;22;36248;-78
2020/12/20 05:11:32;;;;;;;8.77;7.63;;;6.10;54.70;;;;;;6252703;22;40067;-77
2020/12/20 05:13:59;;;;;;;9.40;7.83;;;6.10;54.80;;;;;;6254171;22;38844;-77
2020/12/20 05:16:36;;;;;;;9.17;7.97;;;6.10;54.90;;;;;;6252186;22;39368;-77
2020/12/20 05:19:15;;;;;;;9.77;7.33;;;6.10;54.90;;;;;;6253535;22;36247;-78
2020/12/20 05:21:46;;;;;;;8.17;6.70;;;6.10;54.80;;;;;;6252806;22;38431;-78
2020/12/20 05:24:27;;;;;;;8.67;7.40;;;6.10;55.00;;;;;;6253781;22;37782;-77
2020/12/20 05:26:56;;;;;;;10.30;7.77;;;6.10;54.80;;;;;;6253738;22;37919;-77
2020/12/20 05:29:29;;;;;;;10.33;7.73;;;6.10;54.80;;;;;;6252959;22;36064;-77
2020/12/20 05:32:01;;;;;;;11.47;8.40;;;6.10;55.00;;;;;;6253262;22;38352;-77
2020/12/20 05:34:42;;;;;;;8.77;7.87;;;6.10;55.20;;;;;;6238633;22;39075;-77
2020/12/20 05:37:09;;;;;;;9.73;7.90;;;6.10;55.20;;;;;;6262442;22;37119;-77
2020/12/20 05:39:56;;;;;;;10.10;7.63;;;6.10;55.30;;;;;;6286568;22;37927;-79
2020/12/20 05:42:37;;;;;;;8.77;7.70;;;6.10;55.30;;;;;;6254427;22;38491;-79
2020/12/20 05:45:12;;;;;;;10.23;7.90;;;6.10;55.30;;;;;;6253719;22;37714;-78
2020/12/20 05:48:15;;;;;;;10.80;8.30;;;6.10;55.30;;;;;;6280521;22;38632;-79
2020/12/20 05:50:53;;;;;;;11.40;7.60;;;6.00;55.20;;;;;;6254238;22;36065;-78
2020/12/20 05:53:25;;;;;;;10.07;7.10;;;6.00;55.20;;;;;;6262495;22;38494;-78
2020/12/20 05:55:54;;;;;;;15.07;8.57;;;6.00;55.20;;;;;;6282267;22;38923;-78
2020/12/20 05:58:22;;;;;;;11.20;8.00;;;6.00;55.20;;;;;;6262291;22;37647;-78
2020/12/20 06:00:49;;;;;;;11.93;8.47;;;6.00;55.20;;;;;;6292321;22;37806;-76
2020/12/20 06:03:17;;;;;;;12.17;9.73;;;6.00;55.20;;;;;;6289388;22;40636;-77
2020/12/20 06:05:47;;;;;;;8.90;7.97;;;6.00;55.20;;;;;;6284320;22;39043;-76
2020/12/20 06:08:15;;;;;;;8.80;7.03;;;6.00;55.20;;;;;;6254794;22;37716;-77
2020/12/20 06:10:43;;;;;;;7.87;6.27;;;6.00;55.20;;;;;;6257297;22;35900;-77
2020/12/20 06:13:12;;;;;;;6.17;5.57;;;6.00;55.20;;;;;;6257333;22;38439;-76
2020/12/20 06:15:41;;;;;;;6.53;5.73;;;5.90;54.80;;;;;;6255841;22;39471;-76
2020/12/20 06:18:11;;;;;;;6.73;5.87;;;5.90;54.70;;;;;;6255900;22;36705;-77
2020/12/20 06:21:01;;;;;;;8.27;5.90;;;5.90;54.70;;;;;;6256306;22;36415;-77
2020/12/20 06:23:29;;;;;;;7.37;6.07;;;5.90;54.70;;;;;;6278646;22;40121;-77
2020/12/20 06:25:58;;;;;;;9.10;6.57;;;5.90;54.70;;;;;;6283159;22;38904;-77
2020/12/20 06:28:27;;;;;;;8.57;6.60;;;5.80;54.70;;;;;;6285928;22;38038;-77
2020/12/20 06:30:55;;;;;;;6.23;5.37;;;5.80;54.90;;;;;;6261749;22;36857;-77
2020/12/20 06:33:30;;;;;;;8.00;6.57;;;5.80;55.10;;;;;;6268778;22;38940;-77
2020/12/20 06:35:57;;;;;;;7.03;6.23;;;5.80;55.70;;;;;;6298971;22;40367;-77
2020/12/20 06:38:25;;;;;;;11.20;9.10;;;5.80;55.10;;;;;;6294201;22;38088;-78
2020/12/20 06:40:52;;;;;;;12.70;8.53;;;5.90;55.20;;;;;;6294230;22;37130;-78
2020/12/20 06:43:30;;;;;;;10.50;8.67;;;5.80;55.10;;;;;;6269320;22;38807;-77
2020/12/20 06:45:58;;;;;;;9.43;6.27;;;5.90;55.20;;;;;;6295017;22;39769;-77
2020/12/20 06:48:33;;;;;;;7.00;5.63;;;5.90;55.10;;;;;;6294584;22;38968;-77
2020/12/20 06:51:01;;;;;;;8.20;5.50;;;5.90;55.00;;;;;;6267544;22;36026;-77
2020/12/20 06:53:52;;;;;;;8.00;6.03;;;6.00;54.40;;;;;;6297161;22;40633;-78
2020/12/20 06:56:21;;;;;;;8.27;6.00;;;5.90;54.00;;;;;;6273331;22;38289;-76
2020/12/20 06:58:50;;;;;;;6.23;5.30;;;5.90;54.20;;;;;;6302743;22;37943;-77
2020/12/20 07:01:40;;;;;;;8.23;5.83;;;5.90;54.20;;;;;;6303763;22;37772;-78
2020/12/20 07:04:14;;;;;;;7.60;6.87;;;5.90;54.20;;;;;;6270533;22;38785;-77
2020/12/20 07:06:41;;;;;;;6.80;5.77;;;5.90;54.20;;;;;;6302145;22;39334;-77
2020/12/20 07:09:09;;;;;;;7.20;5.73;;;5.90;54.30;;;;;;6273352;22;37849;-77
2020/12/20 07:11:47;;;;;;;8.83;6.80;;;5.90;54.40;;;;;;6303119;22;37411;-77
2020/12/20 07:14:21;;;;;;;7.60;6.80;;;6.00;54.70;;;;;;6299830;22;39766;-77
2020/12/20 07:16:49;;;;;;;10.40;7.47;;;6.00;55.00;;;;;;6274406;22;39626;-76
2020/12/20 07:19:23;;;;;;;8.77;7.80;;;6.00;55.20;;;;;;6266170;22;37797;-78
2020/12/20 07:22:00;;;;;;;8.40;7.17;;;6.00;55.20;;;;;;6266593;22;38031;-78
2020/12/20 07:24:29;;;;;;;9.30;7.70;;;6.00;55.20;;;;;;6266749;22;40981;-77
2020/12/20 07:27:00;;;;;;;8.60;6.90;;;6.00;55.20;;;;;;6265588;22;39431;-77
2020/12/20 07:29:31;;;;;;;11.10;8.07;;;6.10;55.30;;;;;;6269682;22;37980;-77
2020/12/20 07:32:00;;;;;;;9.57;7.77;;;6.00;55.20;;;;;;6250531;22;37002;-77
2020/12/20 07:34:27;;;;;;;10.27;8.00;;;6.00;55.20;;;;;;6277501;22;41079;-77
2020/12/20 07:37:02;;;;;;;9.33;8.03;;;6.10;55.30;;;;;;6264493;22;40300;-77
2020/12/20 07:39:30;;;;;;;11.10;7.67;;;6.10;55.30;;;;;;6270777;22;38137;-76
2020/12/20 07:41:58;;;;;;;7.87;6.90;;;6.10;55.30;;;;;;6259790;22;37637;-77
2020/12/20 07:44:33;;;;;;;8.87;6.60;;;6.10;55.30;;;;;;6255141;22;40570;-77
2020/12/20 07:47:10;;;;;;;6.47;5.80;;;6.20;55.40;;;;;;6254020;22;39816;-77
2020/12/20 07:49:37;;;;;;;7.80;6.90;;;6.20;54.20;;;;;;6255048;22;37409;-78
2020/12/20 07:52:10;;;;;;;7.20;6.47;;;6.20;53.70;;;;;;6255367;22;37452;-78
2020/12/20 07:54:43;;;;;;;7.67;6.67;;;6.10;53.50;;;;;;6256332;22;39602;-76
2020/12/20 07:57:18;;;;;;;7.97;6.90;;;6.20;53.70;;;;;;6230575;22;39177;-79
2020/12/20 07:59:46;;;;;;;6.60;5.87;;;6.20;53.60;;;;;;6267337;22;37996;-77
2020/12/20 08:02:21;;;;;;;6.43;5.80;;;6.20;53.50;;;;;;6266521;22;38165;-75
2020/12/20 08:04:49;;;;;;;7.53;5.80;;;6.20;53.00;;;;;;6235774;22;39059;-78
2020/12/20 08:07:18;;;;;;;7.73;6.13;;;6.20;52.90;;;;;;6266153;22;39691;-77
2020/12/20 08:09:54;;;;;;;8.40;6.50;;;6.30;53.00;;;;;;6259408;22;37764;-78
2020/12/20 08:12:21;;;;;;;9.67;6.77;;;6.30;53.10;;;;;;6260080;22;37370;-77
2020/12/20 08:14:59;;;;;;;9.50;7.10;;;6.40;53.30;;;;;;6259632;22;40564;-76
2020/12/20 08:17:27;;;;;;;7.77;6.67;;;6.40;53.40;;;;;;6263775;22;39319;-76
2020/12/20 08:19:54;;;;;;;9.10;8.10;;;6.50;53.80;;;;;;6263713;22;38424;-78
2020/12/20 08:22:23;;;;;;;8.67;7.27;;;6.60;53.70;;;;;;6238372;22;36127;-77
2020/12/20 08:24:55;;;;;;;7.60;6.80;;;6.80;53.50;;;;;;6236260;22;39694;-76
2020/12/20 08:27:26;;;;;;;11.43;8.77;;;6.90;53.40;;;;;;6269320;22;40656;-78
2020/12/20 08:29:56;;;;;;;8.00;7.20;;;7.10;53.20;;;;;;6269211;22;38403;-78
2020/12/20 08:32:26;;;;;;;10.07;7.93;;;7.30;52.80;;;;;;6266348;22;37795;-78
2020/12/20 08:35:07;;;;;;;11.53;7.80;;;7.40;52.30;;;;;;6241432;22;39088;-77
2020/12/20 08:37:36;;;;;;;9.47;7.70;;;7.70;52.30;;;;;;6266186;22;40130;-77
2020/12/20 08:40:14;;;;;;;7.67;6.83;;;7.90;51.20;;;;;;6263247;22;38154;-78
2020/12/20 08:42:46;;;;;;;9.00;7.23;;;8.10;50.10;;;;;;6256158;22;37622;-78
2020/12/20 08:45:15;;;;;;;7.10;6.40;;;8.30;49.30;;;;;;6253157;22;40417;-77
2020/12/20 08:47:43;;;;;;;7.90;6.60;;;8.40;48.70;;;;;;6257391;22;40038;-78
2020/12/20 08:50:11;;;;;;;7.00;5.87;;;8.40;48.00;;;;;;6251230;22;37976;-77
2020/12/20 08:52:39;;;;;;;9.90;6.80;;;8.50;48.10;;;;;;6250845;22;37145;-77
2020/12/20 08:55:07;;;;;;;8.20;6.40;;;8.70;48.40;;;;;;6250708;22;39903;-78
2020/12/20 08:57:36;;;;;;;7.67;6.23;;;8.80;47.40;;;;;;6222944;22;37631;-78
2020/12/20 09:00:09;;;;;;;7.60;6.37;;;8.80;47.30;;;;;;6222544;22;36596;-78
2020/12/20 09:02:37;;;;;;;6.50;5.57;;;8.80;46.60;;;;;;6249108;22;37116;-77
2020/12/20 09:05:07;;;;;;;6.80;5.93;;;8.80;47.10;;;;;;6249857;22;39396;-77
2020/12/20 09:07:37;;;;;;;6.70;6.00;;;8.80;47.30;;;;;;6222019;22;39313;-77
2020/12/20 09:10:06;;;;;;;7.00;5.73;;;8.80;47.10;;;;;;6223394;22;37407;-77
2020/12/20 09:12:48;;;;;;;6.87;5.90;;;8.80;47.10;;;;;;6248637;22;37948;-77
2020/12/20 09:15:20;;;;;;;6.90;6.17;;;8.80;47.10;;;;;;6238078;22;38766;-79
2020/12/20 09:17:48;;;;;;;7.13;6.13;;;8.80;47.10;;;;;;6280808;22;38913;-76
2020/12/20 09:20:19;;;;;;;9.10;5.83;;;8.90;47.40;;;;;;6281876;22;37515;-76
2020/12/20 09:22:52;;;;;;;7.90;6.23;;;8.90;47.10;;;;;;6281099;22;37256;-76
2020/12/20 09:25:35;;;;;;;7.30;5.87;;;9.00;46.90;;;;;;6281290;22;39566;-77
2020/12/20 09:28:05;;;;;;;6.50;5.87;;;9.10;46.90;;;;;;6253435;22;38571;-76
2020/12/20 09:30:41;;;;;;;17.97;11.13;;;9.20;46.70;;;;;;6253017;22;36509;-78
2020/12/20 09:33:26;;;;;;;7.40;6.27;;;9.20;46.50;;;;;;6281020;22;37455;-77
2020/12/20 09:35:55;;;;;;;7.37;6.23;;;9.30;46.50;;;;;;6283703;22;39681;-77
2020/12/20 09:38:24;;;;;;;8.50;7.03;;;9.30;46.50;;;;;;6257334;22;37671;-78
2020/12/20 09:41:02;;;;;;;5.93;5.43;;;9.20;46.50;;;;;;6261702;22;36616;-78
2020/12/20 09:43:30;;;;;;;8.97;6.20;;;9.20;46.40;;;;;;6282846;22;37637;-76
2020/12/20 09:46:01;;;;;;;9.47;5.80;;;9.30;46.80;;;;;;6254955;22;39455;-78
2020/12/20 09:48:28;;;;;;;6.90;6.07;;;9.40;46.90;;;;;;6281054;22;39710;-78
2020/12/20 09:50:55;;;;;;;7.30;6.20;;;9.80;46.70;;;;;;6281174;22;38626;-77
2020/12/20 09:53:22;;;;;;;7.17;5.67;;;10.50;45.20;;;;;;6282511;22;37831;-78
2020/12/20 09:55:49;;;;;;;7.37;5.83;;;11.50;44.00;;;;;;6253911;22;38577;-79
2020/12/20 09:58:17;;;;;;;6.53;5.90;;;12.50;41.50;;;;;;6282983;22;39918;-79
2020/12/20 10:00:47;;;;;;;7.00;6.00;;;13.30;40.10;;;;;;6262622;22;36840;-75
2020/12/20 10:03:14;;;;;;;7.90;6.00;;;13.70;38.00;;;;;;6267712;22;36650;-77
2020/12/20 10:05:43;;;;;;;6.10;5.50;;;13.90;37.60;;;;;;6259874;22;40016;-80
2020/12/20 10:08:11;;;;;;;6.37;5.77;;;14.10;37.30;;;;;;6286666;22;39191;-77
2020/12/20 10:10:38;;;;;;;6.67;6.07;;;14.10;36.90;;;;;;6255338;22;36463;-77
2020/12/20 10:13:05;;;;;;;7.23;6.53;;;14.00;37.00;;;;;;6282455;22;36999;-75
2020/12/20 10:15:32;;;;;;;7.17;6.47;;;13.90;37.20;;;;;;6263670;22;39885;-79
2020/12/20 10:18:01;;;;;;;7.77;6.97;;;13.70;37.50;;;;;;6260813;22;37918;-79
2020/12/20 10:20:31;;;;;;;7.60;6.27;;;13.50;37.40;;;;;;6268756;22;36800;-76
2020/12/20 10:22:59;;;;;;;7.10;6.40;;;13.30;38.10;;;;;;6264052;22;37066;-77
2020/12/20 10:25:27;;;;;;;8.03;6.50;;;13.20;38.40;;;;;;6256251;22;38631;-77
2020/12/20 10:27:54;;;;;;;8.30;6.30;;;13.20;39.00;;;;;;6255727;22;37941;-76
2020/12/20 10:30:24;;;;;;;7.70;6.80;;;13.30;39.10;;;;;;6287324;22;37670;-77
2020/12/20 10:32:51;;;;;;;14.60;6.90;;;13.30;38.70;;;;;;6283955;22;37387;-77
2020/12/20 10:35:23;;;;;;;7.77;6.80;;;13.20;38.60;;;;;;6254822;22;39570;-77
2020/12/20 10:37:51;;;;;;;17.73;7.97;;;13.10;38.80;;;;;;6282181;22;39192;-77
2020/12/20 10:40:18;;;;;;;9.83;7.80;;;12.60;39.80;;;;;;6280162;22;37780;-75
2020/12/20 10:42:46;;;;;;;8.60;7.70;;;11.90;40.60;;;;;;6279757;22;37140;-76
2020/12/20 10:45:13;;;;;;;8.00;7.20;;;11.40;42.30;;;;;;6281169;22;39583;-75
2020/12/20 10:47:40;;;;;;;7.60;6.53;;;11.10;42.30;;;;;;6280636;22;38982;-76
2020/12/20 10:50:14;;;;;;;8.30;6.70;;;10.80;43.10;;;;;;6280803;22;38093;-77
2020/12/20 10:52:42;;;;;;;11.73;7.37;;;10.60;43.90;;;;;;6280734;22;38044;-76
2020/12/20 10:55:09;;;;;;;7.83;7.00;;;10.40;43.80;;;;;;6279987;22;40671;-75
2020/12/20 10:57:36;;;;;;;8.27;7.43;;;10.30;44.80;;;;;;6281566;22;39428;-75
2020/12/20 11:00:09;;;;;;;8.87;7.97;;;10.20;44.80;;;;;;6281246;22;38345;-76
2020/12/20 11:02:37;;;;;;;7.90;7.10;;;10.10;45.30;;;;;;6253267;22;36411;-76
2020/12/20 11:05:07;;;;;;;9.10;7.37;;;10.00;45.30;;;;;;6281025;22;39859;-76
2020/12/20 11:07:34;;;;;;;11.73;6.67;;;10.00;45.30;;;;;;6281528;22;39128;-75
2020/12/20 11:10:03;;;;;;;8.17;6.70;;;10.10;45.00;;;;;;6288725;22;37676;-77
2020/12/20 11:12:32;;;;;;;8.03;6.53;;;10.10;45.30;;;;;;6264972;22;36177;-76
2020/12/20 11:14:59;;;;;;;9.20;6.50;;;10.00;45.30;;;;;;6284556;22;40340;-76
2020/12/20 11:17:26;;;;;;;10.03;7.60;;;10.20;45.50;;;;;;6259089;22;38620;-77
2020/12/20 11:19:55;;;;;;;6.97;6.27;;;10.20;45.50;;;;;;6225536;22;36605;-77
2020/12/20 11:22:23;;;;;;;7.83;6.20;;;10.10;45.60;;;;;;6252872;22;37260;-76
2020/12/20 11:24:50;;;;;;;7.60;6.53;;;10.10;45.80;;;;;;6252266;22;39387;-76
2020/12/20 11:27:18;;;;;;;8.00;6.50;;;10.20;45.70;;;;;;6224437;22;38792;-79
2020/12/20 11:29:45;;;;;;;8.70;6.60;;;10.40;45.10;;;;;;6249827;22;37389;-79
2020/12/20 11:32:12;;;;;;;10.20;7.10;;;10.70;45.30;;;;;;6249816;22;37804;-78
2020/12/20 11:34:39;;;;;;;8.67;6.70;;;10.90;44.80;;;;;;6223152;22;38760;-80
2020/12/20 11:37:08;;;;;;;9.80;8.40;;;11.20;44.20;;;;;;6221674;22;39282;-78
2020/12/20 11:39:35;;;;;;;10.97;7.73;;;11.40;43.90;;;;;;6223334;22;37388;-77
2020/12/20 11:42:02;;;;;;;7.60;6.43;;;11.50;43.50;;;;;;6249416;22;38077;-80
2020/12/20 11:44:30;;;;;;;8.90;6.87;;;11.70;43.40;;;;;;6250022;22;39722;-79
2020/12/20 11:46:57;;;;;;;8.10;7.07;;;11.80;43.10;;;;;;6251344;22;39156;-79
2020/12/20 11:49:24;;;;;;;13.53;6.47;;;12.00;42.70;;;;;;6223909;22;38038;-79
2020/12/20 11:51:52;;;;;;;10.50;6.50;;;12.10;42.70;;;;;;6249389;22;37691;-80
2020/12/20 11:54:26;;;;;;;8.73;6.93;;;12.30;42.30;;;;;;6250141;22;39635;-79
2020/12/20 11:56:56;;;;;;;7.30;6.60;;;12.50;41.70;;;;;;6222033;22;38379;-78
2020/12/20 11:59:23;;;;;;;8.23;7.43;;;12.60;41.30;;;;;;6249276;22;37787;-78
2020/12/20 12:01:51;;;;;;;9.37;7.20;;;12.70;41.10;;;;;;6250105;22;37404;-79
2020/12/20 12:04:19;;;;;;;9.30;8.30;;;12.70;40.70;;;;;;6249448;22;40597;-78
2020/12/20 12:06:46;;;;;;;7.97;7.17;;;12.70;40.30;;;;;;6222817;22;38564;-78
2020/12/20 12:09:13;;;;;;;9.20;8.13;;;12.60;39.80;;;;;;6221272;22;36488;-80
2020/12/20 12:11:42;;;;;;;10.50;8.37;;;12.60;40.30;;;;;;6248715;22;37056;-79
2020/12/20 12:14:09;;;;;;;14.90;8.33;;;12.60;40.70;;;;;;6248407;22;39568;-78
2020/12/20 12:16:36;;;;;;;9.93;7.63;;;12.70;40.80;;;;;;6221307;22;38762;-79
2020/12/20 12:19:04;;;;;;;7.20;6.50;;;12.70;40.70;;;;;;6249136;22;38566;-79
2020/12/20 12:21:31;;;;;;;9.43;7.53;;;12.70;40.70;;;;;;6221622;22;35644;-80
2020/12/20 12:23:59;;;;;;;7.63;6.80;;;12.70;40.80;;;;;;6248415;22;39587;-79
2020/12/20 12:26:26;;;;;;;8.70;7.33;;;12.70;40.90;;;;;;6220723;22;39387;-78
2020/12/20 12:28:55;;;;;;;10.03;8.00;;;12.60;40.80;;;;;;6248076;22;37209;-78
2020/12/20 12:31:23;;;;;;;11.80;8.00;;;12.60;40.90;;;;;;6220804;22;36262;-78
2020/12/20 12:33:52;;;;;;;9.10;7.90;;;12.60;41.10;;;;;;6247325;22;39306;-78
2020/12/20 12:36:26;;;;;;;11.20;9.27;;;12.60;41.30;;;;;;6247764;22;39344;-78
2020/12/20 12:38:56;;;;;;;12.07;7.60;;;12.60;41.30;;;;;;6248695;22;37390;-77
2020/12/20 12:41:29;;;;;;;9.20;7.67;;;12.60;41.60;;;;;;6247463;22;37154;-77
2020/12/20 12:43:56;;;;;;;7.70;6.80;;;12.60;41.30;;;;;;6248147;22;39564;-78
2020/12/20 12:46:23;;;;;;;8.20;6.70;;;12.60;41.80;;;;;;6247446;22;38858;-78
2020/12/20 12:48:50;;;;;;;9.23;8.20;;;12.60;41.80;;;;;;6247187;22;37275;-79
2020/12/20 12:51:23;;;;;;;8.87;7.90;;;12.60;41.40;;;;;;6220342;22;35688;-80
2020/12/20 12:53:53;;;;;;;8.87;7.97;;;12.60;41.10;;;;;;6219937;22;39859;-78
2020/12/20 12:56:20;;;;;;;11.10;7.50;;;12.60;41.40;;;;;;6247932;22;39227;-79
2020/12/20 12:58:47;;;;;;;8.67;7.43;;;12.60;41.40;;;;;;6246473;22;37833;-80
2020/12/20 13:01:14;;;;;;;11.10;7.60;;;12.60;41.70;;;;;;6247335;22;37238;-80
2020/12/20 13:03:41;;;;;;;14.00;7.67;;;12.60;42.00;;;;;;6246346;22;39389;-79
2020/12/20 13:06:16;;;;;;;11.50;8.30;;;12.60;42.20;;;;;;6221382;22;38982;-79
2020/12/20 13:08:45;;;;;;;10.10;8.10;;;12.50;42.00;;;;;;6247708;22;38514;-80
2020/12/20 13:11:12;;;;;;;9.30;8.30;;;12.50;42.10;;;;;;6247660;22;37246;-77